Time;durP1;ratioP1;P1;durP2;ratioP2;P2;SDS_P1;SDS_P2;PMS_P1;PMS_P2;Temp;Humidity;BMP_temperature;BMP_pressure;BME280_temperature;BME280_humidity;BME280_pressure;Samples;Min_cycle;Max_cycle;Signal;HPM_P1;HPM_P2
2022/04/04 00:01:27;;;;;;;;;;;15.40;30.60;;;;;;8367905;28;19921;-47
2022/04/04 00:05:28;;;;;;;;;;;15.40;30.50;;;;;;8367004;28;19920;-48
2022/04/04 00:09:29;;;;;;;;;;;15.40;30.60;;;;;;8367632;28;20293;-47
2022/04/04 00:13:29;;;;;;;;;;;15.40;30.60;;;;;;8367248;28;19916;-47
2022/04/04 00:17:30;;;;;;;;;;;15.40;30.50;;;;;;8366838;28;20301;-46
2022/04/04 00:21:31;;;;;;;;;;;15.40;30.60;;;;;;8367470;28;19975;-46
2022/04/04 00:25:31;;;;;;;;;;;15.40;30.60;;;;;;8366981;28;19917;-47
2022/04/04 00:29:31;;;;;;;;;;;15.30;30.60;;;;;;8366417;28;19959;-48
2022/04/04 00:33:32;;;;;;;;;;;15.30;30.60;;;;;;8366915;28;19970;-48
2022/04/04 00:37:34;;;;;;;;;;;15.30;30.70;;;;;;8365278;28;20324;-47
2022/04/04 00:41:34;;;;;;;;;;;15.30;30.70;;;;;;8366139;28;20011;-47
2022/04/04 00:45:35;;;;;;;;;;;15.30;30.80;;;;;;8366400;28;19917;-47
2022/04/04 00:49:35;;;;;;;;;;;15.30;30.70;;;;;;8366459;28;20580;-47
2022/04/04 00:53:36;;;;;;;;;;;15.30;30.80;;;;;;8365673;28;19917;-47
2022/04/04 00:57:37;;;;;;;;;;;15.30;30.70;;;;;;8365920;28;19921;-50
2022/04/04 01:01:38;;;;;;;;;;;15.20;30.80;;;;;;8366063;28;19931;-47
2022/04/04 01:05:39;;;;;;;;;;;15.20;30.70;;;;;;8365195;28;19917;-48
2022/04/04 01:09:40;;;;;;;;;;;15.20;30.70;;;;;;8334697;28;19962;-47
2022/04/04 01:13:44;;;;;;;;;;;15.30;30.70;;;;;;8332386;28;19913;-47
2022/04/04 01:17:45;;;;;;;;;;;15.30;30.70;;;;;;8331769;28;19917;-46
2022/04/04 01:21:46;;;;;;;;;;;15.30;30.60;;;;;;8332655;28;19976;-47
2022/04/04 01:25:46;;;;;;;;;;;15.30;30.60;;;;;;8332012;28;19928;-47
2022/04/04 01:29:47;;;;;;;;;;;15.30;30.60;;;;;;8331547;28;19918;-46
2022/04/04 01:33:47;;;;;;;;;;;15.30;30.50;;;;;;8331818;28;19914;-46
2022/04/04 01:37:48;;;;;;;;;;;15.30;30.50;;;;;;8331822;28;19971;-47
2022/04/04 01:41:48;;;;;;;;;;;15.30;30.50;;;;;;8331208;28;19929;-47
2022/04/04 01:50:08;;;;;;;;;;;15.30;30.50;;;;;;8333719;28;20349;-47
2022/04/04 01:54:09;;;;;;;;;;;15.30;30.50;;;;;;8330742;28;19917;-47
2022/04/04 01:58:10;;;;;;;;;;;15.30;30.50;;;;;;8331231;28;19963;-47
2022/04/04 02:02:10;;;;;;;;;;;15.30;30.60;;;;;;8331007;28;19928;-47
2022/04/04 02:06:11;;;;;;;;;;;15.30;30.60;;;;;;8330310;28;20286;-47
2022/04/04 02:10:11;;;;;;;;;;;15.30;30.60;;;;;;8330911;28;20302;-48
2022/04/04 02:14:12;;;;;;;;;;;15.20;30.60;;;;;;8330919;28;19919;-47
2022/04/04 02:18:12;;;;;;;;;;;15.20;30.70;;;;;;8330045;28;20442;-47
2022/04/04 02:22:13;;;;;;;;;;;15.20;30.70;;;;;;8330592;28;19925;-48
2022/04/04 02:26:13;;;;;;;;;;;15.20;30.70;;;;;;8329937;28;20321;-49
2022/04/04 02:30:14;;;;;;;;;;;15.20;30.80;;;;;;8330505;28;19924;-48
2022/04/04 02:34:14;;;;;;;;;;;15.10;30.70;;;;;;8330465;28;19918;-46
2022/04/04 02:38:16;;;;;;;;;;;15.10;30.70;;;;;;8329918;28;19917;-48
2022/04/04 02:42:16;;;;;;;;;;;15.10;30.80;;;;;;8330201;28;20454;-46
2022/04/04 02:46:17;;;;;;;;;;;15.10;30.70;;;;;;8330064;28;19951;-45
2022/04/04 02:50:17;;;;;;;;;;;15.10;30.80;;;;;;8329622;28;20288;-46
2022/04/04 02:54:18;;;;;;;;;;;15.10;30.80;;;;;;8330083;28;20393;-46
2022/04/04 02:58:18;;;;;;;;;;;15.10;30.70;;;;;;8330101;28;20381;-46
2022/04/04 03:02:19;;;;;;;;;;;15.10;30.70;;;;;;8314929;28;20286;-47
2022/04/04 03:06:19;;;;;;;;;;;15.10;30.70;;;;;;8336421;28;19921;-47
2022/04/04 03:10:20;;;;;;;;;;;15.20;30.70;;;;;;8336322;28;19920;-46
2022/04/04 03:14:21;;;;;;;;;;;15.20;30.60;;;;;;8335729;28;20378;-45
2022/04/04 03:18:21;;;;;;;;;;;15.20;30.60;;;;;;8336027;28;19920;-47
2022/04/04 03:22:22;;;;;;;;;;;15.20;30.60;;;;;;8336011;28;20309;-47
2022/04/04 03:26:23;;;;;;;;;;;15.20;30.60;;;;;;8335367;28;19992;-46
2022/04/04 03:30:25;;;;;;;;;;;15.30;30.60;;;;;;8335589;28;19917;-46
2022/04/04 03:34:25;;;;;;;;;;;15.30;30.60;;;;;;8335714;28;19913;-47
2022/04/04 03:38:27;;;;;;;;;;;15.30;30.60;;;;;;8335187;28;20428;-50
2022/04/04 03:42:27;;;;;;;;;;;15.30;30.50;;;;;;8335591;28;20287;-48
2022/04/04 03:46:28;;;;;;;;;;;15.30;30.60;;;;;;8335356;28;19917;-48
2022/04/04 03:50:28;;;;;;;;;;;15.30;30.50;;;;;;8334717;28;19917;-48
2022/04/04 03:54:30;;;;;;;;;;;15.30;30.50;;;;;;8334948;28;20012;-46
2022/04/04 03:58:31;;;;;;;;;;;15.30;30.50;;;;;;8335221;28;19948;-46
2022/04/04 04:02:32;;;;;;;;;;;15.20;30.50;;;;;;8334315;28;20374;-47
2022/04/04 04:06:33;;;;;;;;;;;15.20;30.60;;;;;;8334078;28;19967;-48
2022/04/04 04:10:33;;;;;;;;;;;15.20;30.60;;;;;;8334346;28;19914;-47
2022/04/04 04:14:34;;;;;;;;;;;15.20;30.60;;;;;;8333701;28;20285;-47
2022/04/04 04:18:35;;;;;;;;;;;15.20;30.60;;;;;;8334490;28;19914;-47
2022/04/04 04:22:36;;;;;;;;;;;15.20;30.60;;;;;;8334065;28;19926;-47
2022/04/04 04:26:36;;;;;;;;;;;15.10;30.60;;;;;;8333488;28;19917;-46
2022/04/04 04:30:36;;;;;;;;;;;15.10;30.60;;;;;;8333850;28;20332;-47
2022/04/04 04:34:38;;;;;;;;;;;15.10;30.70;;;;;;8333937;28;19913;-47
2022/04/04 04:38:39;;;;;;;;;;;15.10;30.70;;;;;;8333314;28;20370;-46
2022/04/04 04:42:39;;;;;;;;;;;15.10;30.70;;;;;;8333416;28;19961;-46
2022/04/04 04:46:40;;;;;;;;;;;15.10;30.70;;;;;;8333198;28;19960;-48
2022/04/04 04:50:40;;;;;;;;;;;15.10;30.80;;;;;;8332757;28;19923;-47
2022/04/04 04:54:42;;;;;;;;;;;15.10;30.80;;;;;;8333086;28;19917;-51
2022/04/04 04:58:43;;;;;;;;;;;15.00;30.80;;;;;;8333428;28;19917;-50
2022/04/04 05:02:43;;;;;;;;;;;15.00;30.80;;;;;;8332208;28;19936;-47
2022/04/04 05:06:48;;;;;;;;;;;15.00;30.80;;;;;;8333057;28;20327;-48
2022/04/04 05:10:50;;;;;;;;;;;15.00;30.70;;;;;;8332482;28;19948;-48
2022/04/04 05:14:50;;;;;;;;;;;15.10;30.70;;;;;;8332098;28;20370;-48
2022/04/04 05:18:51;;;;;;;;;;;15.10;30.60;;;;;;8332816;28;19920;-49
2022/04/04 05:22:52;;;;;;;;;;;15.20;30.60;;;;;;8332276;28;20416;-47
2022/04/04 05:26:53;;;;;;;;;;;15.20;30.50;;;;;;8331018;28;19917;-45
2022/04/04 05:30:53;;;;;;;;;;;15.20;31.10;;;;;;8332148;28;19952;-47
2022/04/04 05:34:54;;;;;;;;;;;15.20;30.50;;;;;;8331731;28;19957;-51
2022/04/04 05:38:55;;;;;;;;;;;15.20;30.50;;;;;;8331508;28;19917;-48
2022/04/04 05:42:55;;;;;;;;;;;15.20;30.50;;;;;;8331658;28;19929;-46
2022/04/04 05:46:56;;;;;;;;;;;15.20;30.40;;;;;;8331524;28;19924;-47
2022/04/04 05:50:56;;;;;;;;;;;15.20;30.40;;;;;;8330806;28;19921;-46
2022/04/04 05:55:01;;;;;;;;;;;15.20;30.40;;;;;;8331341;28;19921;-47
2022/04/04 05:59:02;;;;;;;;;;;15.20;30.50;;;;;;8331644;28;19919;-47
2022/04/04 06:03:02;;;;;;;;;;;15.10;30.40;;;;;;8330378;28;19964;-49
2022/04/04 06:07:03;;;;;;;;;;;15.10;30.40;;;;;;8331172;28;19963;-48
2022/04/04 06:11:03;;;;;;;;;;;15.10;30.40;;;;;;8330934;28;19921;-47
2022/04/04 06:15:04;;;;;;;;;;;15.10;30.40;;;;;;8330224;28;19921;-48
2022/04/04 06:19:04;;;;;;;;;;;15.20;30.30;;;;;;8332869;28;19913;-48
2022/04/04 06:23:05;;;;;;;;;;;15.30;30.20;;;;;;8361562;28;19924;-47
2022/04/04 06:27:06;;;;;;;;;;;15.40;30.20;;;;;;8363475;28;19917;-48
2022/04/04 06:31:06;;;;;;;;;;;15.50;30.00;;;;;;8363303;28;20304;-48
2022/04/04 06:35:07;;;;;;;;;;;15.50;30.00;;;;;;8363170;28;19917;-47
2022/04/04 06:39:08;;;;;;;;;;;15.50;29.90;;;;;;8345085;28;20328;-47
2022/04/04 06:43:08;;;;;;;;;;;15.60;29.90;;;;;;8362924;28;20011;-47
2022/04/04 06:47:09;;;;;;;;;;;15.60;29.90;;;;;;8363031;28;19917;-46
2022/04/04 06:51:11;;;;;;;;;;;15.60;29.90;;;;;;8362653;28;20385;-47
2022/04/04 06:55:11;;;;;;;;;;;15.60;29.90;;;;;;8362769;28;20437;-48
2022/04/04 06:59:12;;;;;;;;;;;15.50;29.90;;;;;;8363201;28;19913;-47
2022/04/04 07:03:13;;;;;;;;;;;15.50;30.00;;;;;;8362059;28;19972;-47
2022/04/04 07:07:14;;;;;;;;;;;15.50;30.00;;;;;;8361814;28;19923;-49
2022/04/04 07:11:15;;;;;;;;;;;15.60;29.90;;;;;;8362446;28;19970;-48
2022/04/04 07:15:16;;;;;;;;;;;15.60;29.90;;;;;;8362855;28;19933;-47
2022/04/04 07:19:16;;;;;;;;;;;15.60;30.00;;;;;;8360455;28;19924;-49
2022/04/04 07:23:17;;;;;;;;;;;15.60;30.00;;;;;;8347914;28;19928;-48
2022/04/04 07:27:17;;;;;;;;;;;15.50;30.00;;;;;;8361264;28;19917;-49
2022/04/04 07:31:17;;;;;;;;;;;15.50;30.00;;;;;;8350455;28;19925;-49
2022/04/04 07:35:19;;;;;;;;;;;15.60;30.00;;;;;;8328867;28;19920;-51
2022/04/04 07:39:19;;;;;;;;;;;15.60;30.00;;;;;;8330587;28;19940;-49
2022/04/04 07:43:20;;;;;;;;;;;15.60;30.00;;;;;;8330736;28;19972;-48
2022/04/04 07:47:20;;;;;;;;;;;15.60;30.00;;;;;;8340762;28;19920;-50
2022/04/04 07:51:21;;;;;;;;;;;15.60;30.00;;;;;;8354224;28;20392;-50
2022/04/04 07:55:22;;;;;;;;;;;15.60;30.00;;;;;;8347230;28;19921;-49
2022/04/04 07:59:23;;;;;;;;;;;15.60;30.00;;;;;;8350743;28;19917;-51
2022/04/04 08:03:23;;;;;;;;;;;15.60;30.60;;;;;;8334576;28;19928;-49
2022/04/04 08:07:24;;;;;;;;;;;15.60;30.10;;;;;;8347486;28;19921;-50
2022/04/04 08:11:24;;;;;;;;;;;15.60;30.10;;;;;;8334418;28;19924;-48
2022/04/04 08:15:25;;;;;;;;;;;15.60;30.20;;;;;;8334189;28;19913;-48
2022/04/04 08:19:25;;;;;;;;;;;15.60;30.20;;;;;;8347479;28;19917;-49
2022/04/04 08:23:29;;;;;;;;;;;15.60;30.30;;;;;;8348098;28;20000;-48
2022/04/04 08:27:30;;;;;;;;;;;15.60;30.30;;;;;;8364706;28;19981;-48
2022/04/04 08:31:30;;;;;;;;;;;15.60;30.30;;;;;;8366535;28;20386;-48
2022/04/04 08:35:31;;;;;;;;;;;15.60;30.30;;;;;;8365923;28;19913;-50
2022/04/04 08:39:31;;;;;;;;;;;15.60;30.30;;;;;;8365798;28;19913;-48
2022/04/04 08:43:34;;;;;;;;;;;15.60;30.30;;;;;;8333591;28;20020;-47
2022/04/04 08:47:35;;;;;;;;;;;15.60;30.30;;;;;;8332526;28;19921;-47
2022/04/04 08:51:36;;;;;;;;;;;15.70;30.30;;;;;;8332859;28;19917;-48
2022/04/04 08:55:37;;;;;;;;;;;15.70;30.30;;;;;;8333245;28;19922;-49
2022/04/04 08:59:38;;;;;;;;;;;15.70;30.30;;;;;;8356278;28;19952;-49
2022/04/04 09:03:38;;;;;;;;;;;15.70;30.30;;;;;;8365531;28;19943;-53
2022/04/04 09:07:57;;;;;;;;;;;15.70;30.30;;;;;;8365282;28;19913;-50
2022/04/04 09:12:05;;;;;;;;;;;15.70;30.30;;;;;;8364850;28;19917;-47
2022/04/04 09:16:06;;;;;;;;;;;15.70;30.30;;;;;;8344658;28;19921;-48
2022/04/04 09:20:10;;;;;;;;;;;15.70;30.30;;;;;;8332137;28;19925;-49
2022/04/04 09:24:11;;;;;;;;;;;15.70;30.40;;;;;;8339190;28;19917;-48
2022/04/04 09:28:19;;;;;;;;;;;15.70;30.40;;;;;;8345323;28;20397;-48
2022/04/04 09:32:20;;;;;;;;;;;15.70;30.40;;;;;;8341426;28;20329;-48
2022/04/04 09:36:21;;;;;;;;;;;15.70;30.40;;;;;;8335618;28;19912;-50
2022/04/04 09:40:24;;;;;;;;;;;15.70;30.40;;;;;;8364778;28;19925;-47
2022/04/04 09:44:25;;;;;;;;;;;15.70;30.40;;;;;;8363873;28;19924;-49
2022/04/04 09:48:27;;;;;;;;;;;15.70;30.40;;;;;;8350998;28;19917;-48
2022/04/04 09:52:28;;;;;;;;;;;15.70;30.40;;;;;;8355530;28;19947;-50
2022/04/04 09:56:29;;;;;;;;;;;15.70;30.40;;;;;;8359297;28;19921;-48
2022/04/04 10:00:29;;;;;;;;;;;15.70;30.40;;;;;;8331869;28;19940;-47
2022/04/04 10:04:33;;;;;;;;;;;15.70;30.40;;;;;;8337371;28;20004;-49
2022/04/04 10:08:35;;;;;;;;;;;15.80;30.40;;;;;;8330160;28;20003;-48
2022/04/04 10:12:35;;;;;;;;;;;15.80;30.40;;;;;;8330337;28;20362;-48
2022/04/04 10:16:36;;;;;;;;;;;15.80;30.40;;;;;;8330282;28;19917;-50
2022/04/04 10:20:37;;;;;;;;;;;15.80;30.40;;;;;;8330103;28;19948;-50
2022/04/04 10:24:38;;;;;;;;;;;15.80;30.40;;;;;;8330555;28;20352;-51
2022/04/04 10:28:38;;;;;;;;;;;15.80;30.40;;;;;;8329980;28;19963;-48
2022/04/04 10:32:52;;;;;;;;;;;15.80;30.40;;;;;;8329597;28;19917;-48
2022/04/04 10:36:53;;;;;;;;;;;15.80;30.40;;;;;;8330293;28;19987;-47
2022/04/04 10:40:54;;;;;;;;;;;15.80;30.40;;;;;;8331557;28;19925;-49
2022/04/04 10:44:59;;;;;;;;;;;15.80;30.40;;;;;;8330149;28;19963;-47
2022/04/04 10:49:00;;;;;;;;;;;15.90;30.40;;;;;;8331825;28;19917;-48
2022/04/04 10:53:01;;;;;;;;;;;15.90;30.40;;;;;;8332031;28;19921;-50
2022/04/04 10:57:02;;;;;;;;;;;15.90;30.40;;;;;;8329511;28;19921;-49
2022/04/04 11:01:15;;;;;;;;;;;15.90;30.40;;;;;;8329995;28;19921;-51
2022/04/04 11:09:47;;;;;;;;;;;15.90;30.40;;;;;;8329998;28;20024;-52
2022/04/04 11:13:51;;;;;;;;;;;16.00;30.40;;;;;;8329483;28;20333;-51
2022/04/04 11:17:55;;;;;;;;;;;16.00;30.50;;;;;;8329221;28;20294;-51
2022/04/04 11:21:56;;;;;;;;;;;16.00;30.50;;;;;;8330374;28;19955;-48
2022/04/04 11:25:57;;;;;;;;;;;16.00;30.50;;;;;;8335845;28;19917;-47
2022/04/04 11:29:58;;;;;;;;;;;16.00;30.40;;;;;;8335051;28;20415;-48
2022/04/04 11:33:58;;;;;;;;;;;16.00;30.30;;;;;;8335324;28;19967;-47
2022/04/04 11:38:00;;;;;;;;;;;16.10;30.40;;;;;;8335390;28;19924;-46
2022/04/04 11:42:01;;;;;;;;;;;16.10;30.30;;;;;;8334464;28;19921;-47
2022/04/04 11:46:02;;;;;;;;;;;16.10;30.80;;;;;;8335311;28;20362;-47
2022/04/04 11:50:03;;;;;;;;;;;16.10;30.30;;;;;;8334805;28;19924;-48
2022/04/04 11:54:04;;;;;;;;;;;16.10;30.20;;;;;;8334506;28;19921;-47
2022/04/04 11:58:15;;;;;;;;;;;16.10;30.30;;;;;;8335055;28;20369;-49
2022/04/04 12:02:16;;;;;;;;;;;16.10;30.20;;;;;;8333952;28;19925;-48
2022/04/04 12:06:17;;;;;;;;;;;16.20;30.30;;;;;;8334771;28;19996;-48
2022/04/04 12:10:24;;;;;;;;;;;16.20;30.20;;;;;;8334302;28;19925;-48
2022/04/04 12:14:29;;;;;;;;;;;16.30;30.20;;;;;;8333866;28;20442;-49
2022/04/04 12:18:30;;;;;;;;;;;16.20;30.20;;;;;;8316348;28;19921;-48
2022/04/04 12:27:09;;;;;;;;;;;16.30;30.30;;;;;;8334613;28;19940;-48
2022/04/04 12:31:10;;;;;;;;;;;16.30;30.30;;;;;;8334160;28;20412;-48
2022/04/04 12:35:11;;;;;;;;;;;16.30;30.80;;;;;;8359252;28;20369;-48
2022/04/04 12:39:16;;;;;;;;;;;16.30;30.30;;;;;;8366181;28;19916;-47
2022/04/04 12:43:16;;;;;;;;;;;16.30;30.20;;;;;;8366424;28;19991;-48
2022/04/04 12:47:17;;;;;;;;;;;16.40;30.30;;;;;;8365759;28;20392;-47
2022/04/04 12:51:25;;;;;;;;;;;16.30;30.30;;;;;;8366201;28;19916;-48
2022/04/04 12:55:26;;;;;;;;;;;16.40;30.30;;;;;;8365996;28;20407;-54
2022/04/04 12:59:27;;;;;;;;;;;16.40;30.30;;;;;;8365431;28;19917;-47
2022/04/04 13:03:27;;;;;;;;;;;16.40;30.20;;;;;;8366002;28;19929;-47
2022/04/04 13:07:30;;;;;;;;;;;16.40;30.30;;;;;;8365646;28;19999;-47
2022/04/04 13:11:44;;;;;;;;;;;16.50;30.30;;;;;;8364067;28;19920;-49
2022/04/04 13:15:47;;;;;;;;;;;16.50;30.30;;;;;;8365188;28;19947;-47
2022/04/04 13:19:47;;;;;;;;;;;16.50;30.30;;;;;;8365327;28;20058;-49
2022/04/04 13:23:48;;;;;;;;;;;16.50;30.30;;;;;;8364834;28;19963;-48
2022/04/04 13:27:48;;;;;;;;;;;16.50;30.30;;;;;;8364973;28;19917;-48
2022/04/04 13:31:49;;;;;;;;;;;16.50;30.30;;;;;;8365051;28;19921;-48
2022/04/04 13:35:49;;;;;;;;;;;16.50;30.30;;;;;;8364263;28;20054;-47
2022/04/04 13:39:50;;;;;;;;;;;16.50;30.40;;;;;;8364769;28;19944;-48
2022/04/04 13:43:51;;;;;;;;;;;16.50;30.30;;;;;;8364834;28;20281;-48
2022/04/04 13:47:51;;;;;;;;;;;16.50;30.40;;;;;;8385200;28;19916;-47
2022/04/04 13:51:52;;;;;;;;;;;16.50;30.40;;;;;;8331641;28;20075;-48
2022/04/04 13:55:52;;;;;;;;;;;16.50;30.40;;;;;;8331451;28;19943;-48
2022/04/04 13:59:53;;;;;;;;;;;16.50;30.40;;;;;;8330164;28;19951;-51
2022/04/04 14:03:53;;;;;;;;;;;16.50;30.40;;;;;;8329398;28;20357;-47
2022/04/04 14:07:55;;;;;;;;;;;16.50;30.40;;;;;;8329239;28;19914;-48
2022/04/04 14:11:56;;;;;;;;;;;16.50;30.50;;;;;;8328809;28;19963;-48
2022/04/04 14:15:56;;;;;;;;;;;16.50;30.40;;;;;;8329206;28;19917;-47
2022/04/04 14:19:58;;;;;;;;;;;16.50;30.50;;;;;;8328746;28;19979;-48
2022/04/04 14:23:59;;;;;;;;;;;16.50;30.40;;;;;;8329335;28;19917;-51
2022/04/04 14:27:59;;;;;;;;;;;16.50;30.30;;;;;;8330238;28;20051;-48
2022/04/04 14:31:59;;;;;;;;;;;16.60;30.40;;;;;;8330930;28;20350;-48
2022/04/04 14:36:01;;;;;;;;;;;16.50;30.70;;;;;;8329513;28;19951;-49
2022/04/04 14:40:02;;;;;;;;;;;16.60;30.40;;;;;;8329915;28;20293;-47
2022/04/04 14:44:02;;;;;;;;;;;16.60;30.50;;;;;;8330162;28;19917;-47
2022/04/04 14:48:06;;;;;;;;;;;16.60;30.50;;;;;;8329366;28;20437;-48
2022/04/04 14:52:06;;;;;;;;;;;16.60;30.50;;;;;;8330001;28;19913;-50
2022/04/04 14:56:07;;;;;;;;;;;16.60;30.40;;;;;;8329837;28;20362;-49
2022/04/04 15:00:08;;;;;;;;;;;16.60;30.30;;;;;;8335279;28;20385;-49
2022/04/04 15:04:12;;;;;;;;;;;16.60;30.40;;;;;;8336606;28;19952;-50
2022/04/04 15:08:13;;;;;;;;;;;16.60;30.30;;;;;;8318605;28;19913;-47
2022/04/04 15:12:13;;;;;;;;;;;16.60;30.40;;;;;;8335906;28;19983;-48
2022/04/04 15:16:15;;;;;;;;;;;16.60;30.30;;;;;;8335709;28;20301;-49
2022/04/04 15:20:15;;;;;;;;;;;16.60;30.40;;;;;;8335007;28;19925;-46
2022/04/04 15:24:17;;;;;;;;;;;16.60;30.40;;;;;;8335656;28;19960;-47
2022/04/04 15:28:18;;;;;;;;;;;16.60;30.50;;;;;;8335634;28;19917;-49
2022/04/04 15:32:18;;;;;;;;;;;16.70;30.50;;;;;;8379582;28;19924;-50
2022/04/04 15:36:22;;;;;;;;;;;16.60;30.40;;;;;;8351176;28;19979;-49
2022/04/04 15:40:24;;;;;;;;;;;16.70;30.40;;;;;;8335458;28;20002;-49
2022/04/04 15:44:25;;;;;;;;;;;16.60;30.50;;;;;;8334834;28;20011;-48
2022/04/04 15:48:27;;;;;;;;;;;16.70;30.50;;;;;;8335475;28;19920;-49
2022/04/04 15:52:27;;;;;;;;;;;16.70;30.40;;;;;;8335384;28;19974;-47
2022/04/04 15:56:29;;;;;;;;;;;16.70;30.40;;;;;;8334306;28;19921;-49
2022/04/04 16:00:31;;;;;;;;;;;16.70;30.30;;;;;;8335066;28;19928;-50
2022/04/04 16:04:32;;;;;;;;;;;16.70;30.30;;;;;;8334658;28;19972;-49
2022/04/04 16:08:32;;;;;;;;;;;16.70;30.30;;;;;;8337460;28;20354;-47
2022/04/04 16:12:33;;;;;;;;;;;16.70;30.40;;;;;;8367743;28;20274;-48
2022/04/04 16:16:34;;;;;;;;;;;16.70;30.40;;;;;;8366724;28;19995;-48
2022/04/04 16:20:36;;;;;;;;;;;16.70;30.40;;;;;;8366370;28;19925;-51
2022/04/04 16:24:37;;;;;;;;;;;16.70;30.40;;;;;;8367130;28;20298;-50
2022/04/04 16:28:39;;;;;;;;;;;16.70;30.40;;;;;;8367171;28;19923;-48
2022/04/04 16:32:40;;;;;;;;;;;16.70;30.50;;;;;;8366383;28;19916;-47
2022/04/04 16:36:44;;;;;;;;;;;16.70;30.40;;;;;;8366516;28;19917;-47
2022/04/04 16:40:44;;;;;;;;;;;16.70;30.40;;;;;;8366088;28;19935;-49
2022/04/04 16:44:44;;;;;;;;;;;16.70;30.40;;;;;;8365525;28;19917;-51
2022/04/04 16:48:46;;;;;;;;;;;16.70;30.40;;;;;;8366271;28;19913;-49
2022/04/04 16:52:47;;;;;;;;;;;16.70;30.40;;;;;;8365631;28;19917;-49
2022/04/04 16:56:47;;;;;;;;;;;16.70;30.50;;;;;;8365020;28;19921;-47
2022/04/04 17:00:48;;;;;;;;;;;16.70;30.40;;;;;;8365756;28;19994;-47
2022/04/04 17:04:48;;;;;;;;;;;16.70;30.40;;;;;;8365610;28;19913;-47
2022/04/04 17:08:49;;;;;;;;;;;16.70;30.40;;;;;;8365085;28;19917;-47
2022/04/04 17:12:49;;;;;;;;;;;16.70;30.40;;;;;;8364818;28;19916;-49
2022/04/04 17:16:50;;;;;;;;;;;16.70;30.40;;;;;;8365086;28;19924;-49
2022/04/04 17:20:50;;;;;;;;;;;16.70;30.40;;;;;;8363366;28;20417;-48
2022/04/04 17:24:51;;;;;;;;;;;16.70;31.00;;;;;;8364726;28;20365;-48
2022/04/04 17:28:51;;;;;;;;;;;16.70;30.50;;;;;;8365270;28;20010;-48
2022/04/04 17:32:52;;;;;;;;;;;16.70;31.00;;;;;;8364355;28;20381;-49
2022/04/04 17:36:53;;;;;;;;;;;16.70;30.50;;;;;;8364422;28;19921;-49
2022/04/04 17:40:54;;;;;;;;;;;16.70;30.50;;;;;;8364389;28;19952;-49
2022/04/04 17:44:55;;;;;;;;;;;16.70;30.60;;;;;;8363849;28;19931;-48
2022/04/04 17:48:55;;;;;;;;;;;16.60;30.70;;;;;;8364616;28;19975;-50
2022/04/04 17:52:56;;;;;;;;;;;16.70;30.70;;;;;;8363808;28;20354;-48
2022/04/04 17:56:57;;;;;;;;;;;16.70;30.80;;;;;;8363405;28;20424;-48
2022/04/04 18:00:57;;;;;;;;;;;16.60;30.70;;;;;;8363787;28;19924;-49
2022/04/04 18:04:57;;;;;;;;;;;16.70;30.80;;;;;;8363808;28;19927;-47
2022/04/04 18:08:58;;;;;;;;;;;16.70;30.70;;;;;;8363552;28;20369;-48
2022/04/04 18:12:58;;;;;;;;;;;16.70;31.30;;;;;;8363610;28;19921;-47
2022/04/04 18:16:59;;;;;;;;;;;16.70;30.80;;;;;;8363420;28;19913;-47
2022/04/04 18:21:04;;;;;;;;;;;16.70;30.70;;;;;;8362600;28;20031;-52
2022/04/04 18:25:06;;;;;;;;;;;16.60;30.70;;;;;;8363499;28;19913;-47
2022/04/04 18:29:06;;;;;;;;;;;16.70;30.80;;;;;;8358408;28;19952;-50
2022/04/04 18:33:07;;;;;;;;;;;16.60;30.70;;;;;;8362440;28;20088;-47
2022/04/04 18:37:07;;;;;;;;;;;16.70;30.80;;;;;;8363045;28;19951;-49
2022/04/04 18:41:08;;;;;;;;;;;16.70;30.80;;;;;;8363077;28;20297;-54
2022/04/04 18:45:09;;;;;;;;;;;16.60;30.70;;;;;;8362508;28;19917;-52
2022/04/04 18:49:09;;;;;;;;;;;16.70;30.80;;;;;;8363224;28;19913;-48
2022/04/04 18:53:13;;;;;;;;;;;16.60;30.70;;;;;;8362899;28;19917;-48
2022/04/04 18:57:13;;;;;;;;;;;16.60;30.70;;;;;;8362044;28;19920;-49
2022/04/04 19:01:13;;;;;;;;;;;16.60;30.80;;;;;;8362511;28;19921;-48
2022/04/04 19:05:14;;;;;;;;;;;16.60;30.80;;;;;;8360999;28;19920;-48
2022/04/04 19:09:15;;;;;;;;;;;16.60;30.80;;;;;;8362982;28;19917;-51
2022/04/04 19:13:15;;;;;;;;;;;16.60;30.70;;;;;;8362572;28;19927;-50
2022/04/04 19:17:16;;;;;;;;;;;16.70;30.80;;;;;;8361803;28;19913;-49
2022/04/04 19:21:16;;;;;;;;;;;16.70;30.80;;;;;;8362644;28;20293;-50
2022/04/04 19:25:17;;;;;;;;;;;16.70;30.80;;;;;;8362268;28;19916;-49
2022/04/04 19:29:17;;;;;;;;;;;16.60;30.70;;;;;;8362034;28;20396;-49
2022/04/04 19:33:18;;;;;;;;;;;16.70;30.80;;;;;;8362028;28;19928;-48
2022/04/04 19:37:18;;;;;;;;;;;16.60;30.70;;;;;;8362016;28;20000;-51
2022/04/04 19:41:19;;;;;;;;;;;16.60;30.70;;;;;;8361593;28;19925;-53
2022/04/04 19:45:19;;;;;;;;;;;16.60;30.70;;;;;;8366552;28;19928;-48
2022/04/04 19:49:20;;;;;;;;;;;16.60;30.70;;;;;;8368519;28;19924;-48
2022/04/04 19:53:21;;;;;;;;;;;16.60;30.70;;;;;;8367603;28;19928;-49
2022/04/04 19:57:22;;;;;;;;;;;16.60;30.70;;;;;;8368165;28;19956;-49
2022/04/04 20:01:26;;;;;;;;;;;16.60;30.70;;;;;;8366050;28;19920;-48
2022/04/04 20:05:27;;;;;;;;;;;16.60;30.80;;;;;;8367321;28;19925;-49
2022/04/04 20:09:27;;;;;;;;;;;16.60;30.70;;;;;;8368381;28;19912;-49
2022/04/04 20:13:28;;;;;;;;;;;16.60;30.70;;;;;;8367355;28;20377;-48
2022/04/04 20:17:28;;;;;;;;;;;16.60;30.80;;;;;;8366970;28;19913;-48
2022/04/04 20:21:29;;;;;;;;;;;16.60;30.80;;;;;;8367044;28;19924;-48
2022/04/04 20:25:29;;;;;;;;;;;16.60;30.80;;;;;;8366922;28;19913;-50
2022/04/04 20:29:30;;;;;;;;;;;16.60;30.70;;;;;;8366695;28;19917;-48
2022/04/04 20:33:31;;;;;;;;;;;16.60;30.70;;;;;;8366736;28;19924;-53
2022/04/04 20:37:34;;;;;;;;;;;16.60;31.30;;;;;;8366548;28;19991;-50
2022/04/04 20:41:35;;;;;;;;;;;16.60;30.70;;;;;;8365927;28;19940;-50
2022/04/04 20:45:37;;;;;;;;;;;16.60;30.70;;;;;;8366523;28;19920;-47
2022/04/04 20:49:37;;;;;;;;;;;16.60;30.70;;;;;;8366685;28;19917;-51
2022/04/04 20:53:38;;;;;;;;;;;16.60;30.70;;;;;;8365629;28;20382;-48
2022/04/04 20:57:39;;;;;;;;;;;16.60;30.60;;;;;;8365923;28;19924;-49
2022/04/04 21:01:39;;;;;;;;;;;16.60;30.60;;;;;;8365881;28;19920;-48
2022/04/04 21:05:40;;;;;;;;;;;16.60;30.60;;;;;;8365439;28;19940;-48
2022/04/04 21:09:40;;;;;;;;;;;16.60;30.50;;;;;;8366283;28;20329;-52
2022/04/04 21:13:41;;;;;;;;;;;16.60;30.60;;;;;;8365673;28;19917;-48
2022/04/04 21:17:41;;;;;;;;;;;16.60;30.50;;;;;;8365053;28;20000;-49
2022/04/04 21:21:42;;;;;;;;;;;16.60;30.50;;;;;;8365666;28;19955;-49
2022/04/04 21:25:42;;;;;;;;;;;16.60;30.50;;;;;;8365243;28;19916;-48
2022/04/04 21:29:43;;;;;;;;;;;16.60;30.60;;;;;;8365029;28;20384;-49
2022/04/04 21:33:44;;;;;;;;;;;16.60;30.50;;;;;;8365056;28;19951;-50
2022/04/04 21:37:44;;;;;;;;;;;16.60;30.70;;;;;;8364966;28;19963;-48
2022/04/04 21:41:45;;;;;;;;;;;16.60;30.70;;;;;;8364226;28;20333;-51
2022/04/04 21:45:46;;;;;;;;;;;16.60;30.70;;;;;;8364744;28;19913;-52
2022/04/04 21:49:48;;;;;;;;;;;16.60;30.70;;;;;;8364753;28;19917;-50
2022/04/04 21:53:48;;;;;;;;;;;16.60;30.70;;;;;;8364006;28;20385;-51
2022/04/04 21:57:50;;;;;;;;;;;16.60;30.70;;;;;;8364546;28;19920;-52
2022/04/04 22:01:50;;;;;;;;;;;16.60;30.70;;;;;;8362305;28;19921;-52
2022/04/04 22:05:50;;;;;;;;;;;16.50;30.70;;;;;;8363635;28;20357;-52
2022/04/04 22:09:51;;;;;;;;;;;16.50;30.70;;;;;;8363992;28;19947;-52
2022/04/04 22:13:53;;;;;;;;;;;16.50;30.70;;;;;;8345741;28;21286;-53
2022/04/04 22:17:53;;;;;;;;;;;16.60;30.70;;;;;;8363348;28;19924;-49
2022/04/04 22:21:54;;;;;;;;;;;16.50;30.70;;;;;;8363778;28;19921;-54
2022/04/04 22:25:54;;;;;;;;;;;16.50;30.70;;;;;;8363787;28;19917;-48
2022/04/04 22:29:55;;;;;;;;;;;16.50;30.70;;;;;;8363094;28;19962;-47
2022/04/04 22:33:55;;;;;;;;;;;16.50;30.70;;;;;;8363379;28;20421;-51
2022/04/04 22:37:56;;;;;;;;;;;16.50;30.70;;;;;;8363412;28;19924;-49
2022/04/04 22:41:57;;;;;;;;;;;16.50;30.70;;;;;;8362724;28;19931;-48
2022/04/04 22:45:57;;;;;;;;;;;16.50;30.70;;;;;;8363582;28;19949;-49
2022/04/04 22:49:58;;;;;;;;;;;16.50;30.70;;;;;;8363157;28;20401;-48
2022/04/04 22:53:58;;;;;;;;;;;16.50;30.70;;;;;;8362737;28;19920;-47
2022/04/04 22:57:59;;;;;;;;;;;16.50;30.70;;;;;;8363179;28;19920;-48
2022/04/04 23:01:59;;;;;;;;;;;16.50;30.70;;;;;;8363132;28;19944;-48
2022/04/04 23:05:59;;;;;;;;;;;16.50;30.80;;;;;;8362584;28;19940;-47
2022/04/04 23:10:00;;;;;;;;;;;16.50;30.80;;;;;;8363036;28;19995;-48
2022/04/04 23:14:00;;;;;;;;;;;16.50;30.80;;;;;;8362675;28;19913;-48
2022/04/04 23:18:01;;;;;;;;;;;16.50;30.80;;;;;;8363189;28;20312;-49
2022/04/04 23:22:01;;;;;;;;;;;16.50;30.80;;;;;;8369203;28;19927;-48
2022/04/04 23:26:02;;;;;;;;;;;16.50;30.80;;;;;;8369442;28;19986;-49
2022/04/04 23:30:03;;;;;;;;;;;16.50;30.80;;;;;;8368535;28;19945;-48
2022/04/04 23:34:04;;;;;;;;;;;16.50;30.80;;;;;;8369146;28;19924;-47